Time;durP1;ratioP1;P1;durP2;ratioP2;P2;SDS_P1;SDS_P2;PMS_P1;PMS_P2;Temp;Humidity;BMP_temperature;BMP_pressure;BME280_temperature;BME280_humidity;BME280_pressure;Samples;Min_cycle;Max_cycle;Signal;HPM_P1;HPM_P2
2022/08/26 00:01:50;;;;;;;18.27;7.32;;;20.30;86.70;;;;;;5057879;28;20157;-89
2022/08/26 00:04:15;;;;;;;15.13;7.40;;;20.20;86.70;;;;;;5058408;28;20204;-88
2022/08/26 00:06:41;;;;;;;15.57;7.75;;;20.20;86.70;;;;;;5057777;28;20179;-89
2022/08/26 00:09:07;;;;;;;14.25;7.45;;;20.20;86.80;;;;;;5041388;28;20181;-88
2022/08/26 00:11:33;;;;;;;14.75;7.82;;;20.20;86.90;;;;;;5058133;28;20191;-89
2022/08/26 00:13:59;;;;;;;12.43;7.13;;;20.20;87.00;;;;;;5040437;28;20212;-89
2022/08/26 00:16:27;;;;;;;17.85;8.00;;;20.20;87.00;;;;;;5039393;28;20187;-88
2022/08/26 00:18:52;;;;;;;16.60;8.27;;;20.20;87.10;;;;;;5056311;28;20197;-89
2022/08/26 00:21:19;;;;;;;20.70;7.88;;;20.20;87.20;;;;;;5040071;28;20172;-89
2022/08/26 00:23:45;;;;;;;12.85;7.60;;;20.10;87.20;;;;;;5057170;28;20210;-89
2022/08/26 00:26:11;;;;;;;13.63;8.05;;;20.10;87.30;;;;;;5057248;28;20165;-88
2022/08/26 00:28:37;;;;;;;18.45;8.35;;;20.10;87.40;;;;;;5040422;28;20386;-89
2022/08/26 00:31:03;;;;;;;21.75;8.18;;;20.10;87.40;;;;;;5028831;28;20234;-89
2022/08/26 00:33:29;;;;;;;19.60;8.10;;;20.10;87.50;;;;;;5039751;28;20227;-89
2022/08/26 00:35:54;;;;;;;16.23;8.18;;;20.10;87.50;;;;;;5040207;28;20184;-89
2022/08/26 00:38:21;;;;;;;10.63;7.72;;;20.10;87.50;;;;;;5055513;28;20220;-89
2022/08/26 00:40:53;;;;;;;19.33;7.68;;;20.00;87.60;;;;;;5055853;28;20169;-89
2022/08/26 00:43:20;;;;;;;12.65;8.35;;;20.10;87.50;;;;;;5038701;28;20193;-90
2022/08/26 00:45:47;;;;;;;17.73;8.65;;;20.00;87.60;;;;;;5037137;28;20169;-89
2022/08/26 00:48:16;;;;;;;16.88;8.32;;;20.00;87.70;;;;;;5055601;28;20173;-89
2022/08/26 00:50:50;;;;;;;10.57;7.65;;;20.00;87.70;;;;;;5038868;28;20165;-89
2022/08/26 00:53:23;;;;;;;14.35;7.97;;;20.00;87.80;;;;;;5055643;28;20689;-89
2022/08/26 00:55:59;;;;;;;18.55;8.25;;;20.00;87.70;;;;;;5055071;28;20177;-90
2022/08/26 00:58:28;;;;;;;12.38;7.68;;;19.90;87.70;;;;;;5044961;28;20164;-89
2022/08/26 01:00:53;;;;;;;13.50;7.72;;;19.90;87.80;;;;;;5025243;28;20192;-88
2022/08/26 01:03:24;;;;;;;10.43;7.80;;;19.90;87.90;;;;;;5027704;28;20215;-89
2022/08/26 01:05:55;;;;;;;16.17;8.18;;;19.80;87.90;;;;;;5027072;28;20161;-88
2022/08/26 01:08:22;;;;;;;17.60;8.02;;;19.80;87.90;;;;;;5028594;28;20557;-89
2022/08/26 01:10:48;;;;;;;16.95;8.45;;;19.80;87.90;;;;;;5026579;28;20173;-89
2022/08/26 01:13:14;;;;;;;19.50;8.75;;;19.80;87.90;;;;;;5025791;28;20219;-89
2022/08/26 01:15:43;;;;;;;17.17;8.93;;;19.70;88.00;;;;;;5023672;28;20181;-89
2022/08/26 01:18:09;;;;;;;21.65;9.07;;;19.70;88.00;;;;;;5022591;28;20196;-88
2022/08/26 01:21:06;;;;;;;17.52;8.63;;;19.70;88.10;;;;;;5024968;28;20654;-88
2022/08/26 01:23:36;;;;;;;16.50;8.90;;;19.70;88.20;;;;;;5009801;28;20682;-88
2022/08/26 01:26:08;;;;;;;17.73;8.82;;;19.70;88.20;;;;;;5024236;28;20554;-88
2022/08/26 01:28:35;;;;;;;18.17;8.60;;;19.60;88.30;;;;;;5023580;28;20220;-88
2022/08/26 01:31:04;;;;;;;19.52;9.18;;;19.60;88.50;;;;;;5024450;28;20187;-89
2022/08/26 01:33:39;;;;;;;20.05;9.07;;;19.60;88.70;;;;;;5023225;28;20725;-89
2022/08/26 01:36:06;;;;;;;17.17;9.23;;;19.60;88.80;;;;;;5024017;28;20173;-88
2022/08/26 01:38:32;;;;;;;13.95;8.75;;;19.60;88.90;;;;;;5024124;28;20177;-89
2022/08/26 01:40:59;;;;;;;17.90;9.20;;;19.60;88.90;;;;;;5023305;28;20215;-89
2022/08/26 01:43:27;;;;;;;20.92;8.85;;;19.60;88.90;;;;;;5022134;28;20255;-88
2022/08/26 01:45:55;;;;;;;14.45;8.57;;;19.60;89.00;;;;;;5022678;28;20169;-88
2022/08/26 01:48:26;;;;;;;16.60;10.18;;;19.60;89.10;;;;;;5023970;28;20198;-88
2022/08/26 01:50:52;;;;;;;15.15;9.07;;;19.60;89.20;;;;;;5024212;28;20184;-88
2022/08/26 01:53:20;;;;;;;21.42;9.77;;;19.60;89.30;;;;;;5022647;28;20208;-89
2022/08/26 01:55:50;;;;;;;17.20;9.57;;;19.50;89.40;;;;;;5021310;28;20176;-89
2022/08/26 01:58:41;;;;;;;16.20;8.80;;;19.50;89.40;;;;;;5020993;28;20271;-89
2022/08/26 02:01:07;;;;;;;17.42;8.98;;;19.50;89.50;;;;;;5016082;28;20193;-89
2022/08/26 02:03:38;;;;;;;12.98;9.02;;;19.50;89.70;;;;;;5020141;28;20204;-88
2022/08/26 02:06:06;;;;;;;17.45;9.50;;;19.40;89.80;;;;;;5020515;28;20554;-89
2022/08/26 02:08:41;;;;;;;22.15;9.50;;;19.40;89.90;;;;;;5020775;28;20172;-89
2022/08/26 02:11:07;;;;;;;18.98;11.02;;;19.40;90.00;;;;;;5020952;28;20177;-89
2022/08/26 02:13:37;;;;;;;21.83;10.70;;;19.30;90.10;;;;;;5020695;28;20215;-88
2022/08/26 02:16:03;;;;;;;16.15;9.38;;;19.30;90.20;;;;;;5020062;28;20173;-88
2022/08/26 02:18:32;;;;;;;13.95;10.30;;;19.30;90.40;;;;;;5019739;28;20215;-89
2022/08/26 02:20:58;;;;;;;18.95;10.00;;;19.30;90.40;;;;;;5020417;28;20177;-89
2022/08/26 02:23:25;;;;;;;19.38;9.90;;;19.20;90.50;;;;;;5019708;28;20207;-89
2022/08/26 02:25:54;;;;;;;15.00;10.57;;;19.20;90.60;;;;;;5019936;28;20169;-88
2022/08/26 02:28:20;;;;;;;15.95;10.07;;;19.20;90.70;;;;;;5019416;28;20180;-88
2022/08/26 02:30:46;;;;;;;19.73;10.82;;;19.20;90.80;;;;;;5019047;28;20564;-89
2022/08/26 02:33:12;;;;;;;19.95;11.50;;;19.20;90.90;;;;;;5018960;28;20636;-88
2022/08/26 02:35:38;;;;;;;14.68;10.05;;;19.20;91.00;;;;;;5019236;28;20180;-88
2022/08/26 02:38:06;;;;;;;17.98;10.00;;;19.20;91.10;;;;;;5019360;28;20173;-88
2022/08/26 02:40:35;;;;;;;21.70;11.63;;;19.10;91.20;;;;;;5019065;28;20642;-89
2022/08/26 02:43:01;;;;;;;16.70;11.20;;;19.20;91.30;;;;;;5020193;28;20204;-89
2022/08/26 02:45:27;;;;;;;21.67;10.13;;;19.20;91.30;;;;;;5020053;28;20180;-89
2022/08/26 02:47:55;;;;;;;21.35;10.18;;;19.20;91.30;;;;;;5019095;28;20199;-89
2022/08/26 02:50:21;;;;;;;16.48;10.35;;;19.20;91.30;;;;;;5019626;28;20712;-89
2022/08/26 02:52:47;;;;;;;18.17;11.15;;;19.20;91.30;;;;;;5019844;28;20315;-89
2022/08/26 02:55:13;;;;;;;20.25;10.32;;;19.20;91.40;;;;;;5020886;28;20177;-89
2022/08/26 02:57:39;;;;;;;17.70;10.10;;;19.20;91.50;;;;;;5019390;28;20180;-89
2022/08/26 03:00:07;;;;;;;23.77;10.73;;;19.20;91.50;;;;;;5022963;28;20195;-89
2022/08/26 03:02:33;;;;;;;16.05;10.98;;;19.20;91.60;;;;;;5020223;28;20185;-89
2022/08/26 03:04:59;;;;;;;21.73;10.75;;;19.20;91.60;;;;;;5019864;28;20196;-89
2022/08/26 03:07:24;;;;;;;25.75;11.00;;;19.20;91.60;;;;;;5019902;28;20182;-89
2022/08/26 03:09:51;;;;;;;23.98;12.00;;;19.20;91.70;;;;;;5019161;28;20181;-89
2022/08/26 03:12:19;;;;;;;23.48;11.57;;;19.20;91.70;;;;;;5019266;28;20466;-89
2022/08/26 03:14:45;;;;;;;19.75;11.07;;;19.20;91.70;;;;;;5019476;28;20223;-88
2022/08/26 03:17:11;;;;;;;17.60;10.35;;;19.20;91.70;;;;;;5018305;28;20194;-89
2022/08/26 03:19:37;;;;;;;17.15;10.15;;;19.10;91.70;;;;;;5019030;28;20216;-88
2022/08/26 03:22:03;;;;;;;16.77;10.85;;;19.00;91.70;;;;;;5018696;28;20183;-89
2022/08/26 03:24:29;;;;;;;17.88;10.73;;;19.10;91.80;;;;;;5018509;28;20196;-88
2022/08/26 03:26:54;;;;;;;20.92;11.18;;;19.00;91.90;;;;;;5018852;28;20199;-89
2022/08/26 03:32:06;;;;;;;22.35;11.13;;;19.10;92.00;;;;;;5037598;28;20579;-88
2022/08/26 03:34:32;;;;;;;17.65;11.80;;;19.00;92.10;;;;;;5018598;28;20192;-88
2022/08/26 03:36:58;;;;;;;19.27;11.45;;;19.10;92.20;;;;;;5017903;28;20176;-89
2022/08/26 03:39:24;;;;;;;17.55;11.52;;;19.10;92.20;;;;;;5017921;28;20175;-89
2022/08/26 03:41:50;;;;;;;22.70;12.07;;;19.10;92.20;;;;;;5017327;28;20183;-89
2022/08/26 03:44:16;;;;;;;29.98;11.77;;;19.00;92.20;;;;;;5017982;28;20242;-88
2022/08/26 03:46:41;;;;;;;25.60;12.48;;;18.90;92.30;;;;;;5020415;28;20176;-89
2022/08/26 03:49:07;;;;;;;34.45;12.52;;;18.90;92.30;;;;;;5021151;28;20184;-89
2022/08/26 03:51:34;;;;;;;17.70;10.85;;;19.00;92.40;;;;;;5018689;28;20287;-89
2022/08/26 03:54:01;;;;;;;19.98;12.38;;;19.00;92.40;;;;;;5019571;28;20670;-89
2022/08/26 03:56:28;;;;;;;24.80;11.80;;;19.00;92.40;;;;;;5018898;28;20173;-88
2022/08/26 03:58:53;;;;;;;25.50;12.07;;;19.00;92.40;;;;;;5019123;28;20665;-88
2022/08/26 04:01:19;;;;;;;16.30;11.82;;;19.00;92.40;;;;;;5020385;28;20212;-89
2022/08/26 04:03:57;;;;;;;19.90;12.35;;;19.10;92.50;;;;;;5018813;28;20203;-89
2022/08/26 04:06:43;;;;;;;31.13;12.45;;;19.00;92.40;;;;;;5017978;28;20177;-89
2022/08/26 04:09:13;;;;;;;17.15;11.85;;;19.00;92.40;;;;;;5018857;28;20169;-88
2022/08/26 04:11:41;;;;;;;18.33;11.55;;;19.10;92.40;;;;;;5018362;28;20201;-89
2022/08/26 04:14:12;;;;;;;22.98;11.38;;;19.00;92.40;;;;;;5021130;28;20195;-89
2022/08/26 04:16:37;;;;;;;25.35;13.00;;;19.00;92.50;;;;;;5018820;28;20227;-89
2022/08/26 04:19:03;;;;;;;16.10;12.13;;;19.00;92.50;;;;;;5017295;28;20651;-89
2022/08/26 04:21:28;;;;;;;17.42;12.18;;;19.00;92.50;;;;;;5018828;28;20216;-89
2022/08/26 04:23:54;;;;;;;17.88;12.30;;;18.90;92.60;;;;;;5023085;28;20694;-89
2022/08/26 04:26:21;;;;;;;22.40;12.55;;;19.00;92.70;;;;;;5020086;28;20579;-89
2022/08/26 04:28:50;;;;;;;19.00;12.15;;;19.00;92.70;;;;;;5019427;28;20240;-89
2022/08/26 04:31:16;;;;;;;20.63;12.82;;;19.00;92.70;;;;;;5020092;28;20626;-89
2022/08/26 04:33:44;;;;;;;17.20;11.73;;;19.00;92.70;;;;;;5022311;28;20192;-89
2022/08/26 04:36:10;;;;;;;25.15;12.45;;;18.90;92.80;;;;;;5022655;28;20183;-89
2022/08/26 04:38:35;;;;;;;16.90;13.00;;;18.90;92.80;;;;;;5022333;28;20176;-89
2022/08/26 04:41:02;;;;;;;23.83;12.38;;;18.90;92.90;;;;;;5022839;28;20208;-89
2022/08/26 04:43:29;;;;;;;27.80;12.82;;;19.00;92.90;;;;;;5024898;28;20192;-89
2022/08/26 04:45:59;;;;;;;21.25;11.93;;;19.00;93.00;;;;;;5030674;28;20236;-89
2022/08/26 04:48:27;;;;;;;32.58;11.23;;;19.10;93.00;;;;;;5034538;28;20188;-89
2022/08/26 04:50:52;;;;;;;31.38;11.88;;;19.10;93.00;;;;;;5035798;28;20240;-89
2022/08/26 04:53:18;;;;;;;20.90;11.35;;;19.20;93.00;;;;;;5036261;28;20212;-89
2022/08/26 04:55:44;;;;;;;22.10;11.30;;;19.30;93.00;;;;;;5040060;28;20181;-89
2022/08/26 04:58:09;;;;;;;19.15;12.38;;;19.30;93.00;;;;;;5034706;28;20187;-89
2022/08/26 05:00:35;;;;;;;24.85;12.13;;;19.30;92.90;;;;;;5034154;28;20219;-89
2022/08/26 05:03:01;;;;;;;18.10;11.57;;;19.50;93.00;;;;;;5038895;28;20223;-89
2022/08/26 05:05:26;;;;;;;16.58;11.13;;;19.50;92.90;;;;;;5039373;28;20221;-89
2022/08/26 05:07:52;;;;;;;17.02;11.60;;;19.60;92.80;;;;;;5038435;28;20180;-89
2022/08/26 05:10:18;;;;;;;20.40;11.23;;;19.60;92.80;;;;;;5040536;28;20180;-89
2022/08/26 05:12:43;;;;;;;23.58;11.10;;;19.70;92.80;;;;;;5039995;28;20205;-89
2022/08/26 05:15:09;;;;;;;23.13;11.38;;;19.80;92.80;;;;;;5038834;28;20182;-89
2022/08/26 05:17:36;;;;;;;22.58;12.40;;;19.80;92.70;;;;;;5039470;28;20177;-89
2022/08/26 05:20:02;;;;;;;17.00;10.77;;;19.90;92.60;;;;;;5032067;28;20168;-89
2022/08/26 05:22:27;;;;;;;16.65;10.68;;;19.90;92.30;;;;;;5034539;28;20211;-89
2022/08/26 05:24:53;;;;;;;16.10;10.02;;;20.00;92.20;;;;;;5035145;28;20193;-89
2022/08/26 05:27:19;;;;;;;19.92;11.18;;;20.10;92.00;;;;;;5034545;28;20689;-89
2022/08/26 05:29:44;;;;;;;21.23;10.52;;;20.20;91.90;;;;;;5034007;28;20203;-89
2022/08/26 05:32:10;;;;;;;17.70;10.15;;;20.20;91.70;;;;;;5032190;28;20304;-88
2022/08/26 05:34:36;;;;;;;19.17;11.48;;;20.30;91.60;;;;;;5027563;28;20216;-89
2022/08/26 05:37:03;;;;;;;21.30;11.57;;;20.30;91.60;;;;;;5035510;28;20196;-89
2022/08/26 05:39:31;;;;;;;27.15;12.18;;;20.30;91.60;;;;;;5035450;28;20168;-89
2022/08/26 05:41:57;;;;;;;20.13;11.52;;;20.40;91.60;;;;;;5034719;28;20181;-89
2022/08/26 05:44:22;;;;;;;21.27;11.07;;;20.50;91.70;;;;;;5030143;28;20200;-89
2022/08/26 05:46:48;;;;;;;24.98;11.32;;;20.60;91.40;;;;;;5032979;28;20219;-89
2022/08/26 05:49:14;;;;;;;20.80;10.38;;;20.70;91.20;;;;;;5031213;28;20168;-89
2022/08/26 05:51:45;;;;;;;20.40;11.02;;;20.70;91.20;;;;;;5051382;28;20573;-88
2022/08/26 05:54:11;;;;;;;20.17;10.05;;;20.70;91.00;;;;;;5034844;28;20278;-89
2022/08/26 05:56:38;;;;;;;22.10;9.63;;;20.70;90.90;;;;;;5035408;28;20179;-89
2022/08/26 05:59:04;;;;;;;17.00;9.57;;;20.70;90.90;;;;;;5028199;28;20179;-89
2022/08/26 06:01:29;;;;;;;19.45;9.35;;;20.80;90.80;;;;;;5030166;28;20215;-89
2022/08/26 06:03:58;;;;;;;22.58;9.75;;;20.80;90.60;;;;;;5033584;28;20205;-88
2022/08/26 06:06:35;;;;;;;21.38;10.27;;;20.80;90.40;;;;;;5029720;28;20663;-89
2022/08/26 06:09:03;;;;;;;19.60;9.80;;;20.80;90.30;;;;;;5029471;28;20169;-89
2022/08/26 06:11:31;;;;;;;20.13;10.23;;;20.90;90.00;;;;;;5030662;28;20204;-89
2022/08/26 06:13:58;;;;;;;22.67;9.20;;;20.90;89.70;;;;;;5022349;28;20192;-87
2022/08/26 06:16:24;;;;;;;19.23;9.90;;;20.90;89.60;;;;;;5018805;28;20631;-87
2022/08/26 06:18:52;;;;;;;22.33;10.13;;;20.80;89.50;;;;;;5035748;28;20227;-88
2022/08/26 06:21:28;;;;;;;23.35;9.88;;;20.90;89.60;;;;;;5018705;28;20359;-88
2022/08/26 06:26:48;;;;;;;20.77;9.25;;;20.90;89.50;;;;;;5046050;28;20199;-89
2022/08/26 06:29:23;;;;;;;13.63;9.02;;;20.90;89.40;;;;;;5024816;28;20199;-88
2022/08/26 06:31:48;;;;;;;16.27;10.10;;;20.90;89.40;;;;;;5018889;28;20265;-88
2022/08/26 06:34:14;;;;;;;28.67;10.57;;;20.90;89.30;;;;;;5018231;28;20598;-88
2022/08/26 06:36:42;;;;;;;31.75;13.63;;;20.90;89.40;;;;;;5019382;28;20169;-90
2022/08/26 06:39:11;;;;;;;42.03;15.68;;;20.90;89.80;;;;;;5022650;28;20241;-91
2022/08/26 06:41:38;;;;;;;24.20;13.38;;;20.90;90.30;;;;;;5014552;28;20189;-91
2022/08/26 06:44:05;;;;;;;23.33;12.77;;;20.70;90.70;;;;;;5021599;28;20192;-92
2022/08/26 06:46:31;;;;;;;22.40;13.10;;;20.70;91.10;;;;;;5020588;28;20173;-92
2022/08/26 06:48:57;;;;;;;26.48;13.35;;;20.60;91.60;;;;;;5024681;28;20181;-91
2022/08/26 06:51:26;;;;;;;28.00;14.35;;;20.50;92.00;;;;;;5028145;28;20187;-91
2022/08/26 06:53:53;;;;;;;25.38;14.65;;;20.40;92.30;;;;;;5021893;28;20749;-91
2022/08/26 06:56:23;;;;;;;30.02;16.35;;;20.40;92.60;;;;;;5021392;28;20172;-91
2022/08/26 06:58:49;;;;;;;26.75;16.38;;;20.40;92.80;;;;;;5020626;28;20169;-91
2022/08/26 07:01:44;;;;;;;32.47;16.17;;;20.50;93.00;;;;;;5018696;28;20176;-90
2022/08/26 07:04:13;;;;;;;25.55;16.17;;;20.50;93.10;;;;;;5010010;28;20686;-90
2022/08/26 07:06:40;;;;;;;22.52;17.02;;;20.50;93.10;;;;;;5018479;28;20234;-90
2022/08/26 07:09:07;;;;;;;25.58;16.17;;;20.60;93.20;;;;;;5018608;28;20180;-90
2022/08/26 07:11:34;;;;;;;26.52;15.60;;;20.60;93.30;;;;;;5017964;28;20196;-90
2022/08/26 07:14:00;;;;;;;29.17;17.63;;;20.70;93.30;;;;;;5017843;28;20193;-90
2022/08/26 07:16:27;;;;;;;27.98;16.48;;;20.70;93.40;;;;;;5018841;28;20179;-91
2022/08/26 07:18:53;;;;;;;32.65;17.60;;;20.70;93.40;;;;;;5023346;28;20184;-91
2022/08/26 07:21:20;;;;;;;31.77;18.42;;;20.70;93.40;;;;;;5020803;28;20181;-90
2022/08/26 07:23:47;;;;;;;24.95;16.33;;;20.70;93.50;;;;;;5023758;28;20671;-90
2022/08/26 07:26:16;;;;;;;26.27;16.23;;;20.70;93.50;;;;;;5021095;28;20202;-90
2022/08/26 07:28:43;;;;;;;29.42;16.85;;;20.80;93.50;;;;;;5020713;28;20276;-91
2022/08/26 07:31:11;;;;;;;22.85;15.23;;;20.80;93.50;;;;;;5020047;28;20271;-91
2022/08/26 07:33:38;;;;;;;24.13;16.38;;;20.80;93.60;;;;;;5022434;28;20201;-91
2022/08/26 07:36:06;;;;;;;29.33;15.30;;;20.80;93.50;;;;;;5020660;28;20177;-90
2022/08/26 07:38:32;;;;;;;28.33;16.00;;;20.80;93.60;;;;;;5019560;28;20177;-90
2022/08/26 07:40:58;;;;;;;34.20;16.42;;;20.90;93.60;;;;;;5017061;28;20195;-91
2022/08/26 07:43:23;;;;;;;20.88;15.35;;;21.00;93.60;;;;;;5018243;28;20260;-90
2022/08/26 07:45:49;;;;;;;30.70;16.20;;;21.00;93.60;;;;;;5020124;28;20173;-90
2022/08/26 07:48:16;;;;;;;23.73;15.05;;;21.00;93.50;;;;;;5022197;28;20598;-90
2022/08/26 07:50:42;;;;;;;24.30;13.77;;;21.10;93.60;;;;;;5019758;28;20645;-90
2022/08/26 07:53:11;;;;;;;24.88;15.50;;;21.20;93.40;;;;;;5020009;28;20246;-90
2022/08/26 07:55:37;;;;;;;31.40;14.70;;;21.20;93.30;;;;;;5019406;28;20518;-90
2022/08/26 07:58:04;;;;;;;21.70;15.20;;;21.30;93.30;;;;;;5016152;28;20183;-89
2022/08/26 08:00:31;;;;;;;27.65;14.30;;;21.20;93.00;;;;;;5018352;28;20173;-91
2022/08/26 08:02:58;;;;;;;23.75;13.63;;;21.30;92.90;;;;;;5018383;28;20342;-91
2022/08/26 08:05:24;;;;;;;20.90;14.23;;;21.30;92.90;;;;;;5020360;28;20185;-91
2022/08/26 08:07:51;;;;;;;20.70;13.77;;;21.40;92.80;;;;;;5018818;28;20560;-91
2022/08/26 08:10:22;;;;;;;30.88;14.63;;;21.40;92.80;;;;;;5019344;28;20631;-91
2022/08/26 08:12:48;;;;;;;28.25;15.63;;;21.40;92.80;;;;;;5016872;28;20236;-90
2022/08/26 08:15:14;;;;;;;32.10;15.75;;;21.50;92.80;;;;;;5016899;28;20658;-90
2022/08/26 08:17:42;;;;;;;26.10;14.93;;;21.50;92.70;;;;;;5017856;28;20714;-91
2022/08/26 08:20:09;;;;;;;24.77;13.50;;;21.60;92.80;;;;;;5018011;28;20207;-91
2022/08/26 08:22:34;;;;;;;25.38;13.90;;;21.70;92.90;;;;;;5018997;28;20550;-90
2022/08/26 08:25:01;;;;;;;19.95;14.00;;;21.60;92.60;;;;;;5018618;28;20183;-91
2022/08/26 08:27:27;;;;;;;22.05;13.65;;;21.60;92.40;;;;;;5018407;28;20191;-90
2022/08/26 08:29:53;;;;;;;23.25;13.48;;;21.70;92.20;;;;;;5020753;28;20191;-90
2022/08/26 08:32:20;;;;;;;22.40;14.07;;;21.70;92.10;;;;;;5020405;28;20283;-90
2022/08/26 08:34:46;;;;;;;21.35;12.60;;;21.70;91.70;;;;;;5020312;28;20192;-90
2022/08/26 08:37:11;;;;;;;15.35;9.57;;;21.70;91.50;;;;;;5018967;28;20182;-90
2022/08/26 08:39:37;;;;;;;14.57;7.35;;;21.60;91.10;;;;;;5018829;28;20181;-90
2022/08/26 08:42:06;;;;;;;7.80;4.97;;;21.60;90.40;;;;;;5022645;28;20231;-91
2022/08/26 08:44:35;;;;;;;4.63;3.97;;;21.50;89.40;;;;;;5021912;28;20219;-90
2022/08/26 08:47:09;;;;;;;5.90;4.22;;;21.40;88.30;;;;;;5019267;28;20177;-90
2022/08/26 08:49:35;;;;;;;6.25;3.75;;;21.40;87.80;;;;;;5018973;28;20241;-90
2022/08/26 08:52:08;;;;;;;6.57;3.53;;;21.30;87.00;;;;;;5015944;28;20209;-87
2022/08/26 08:54:33;;;;;;;3.65;3.20;;;21.40;86.80;;;;;;5033315;28;20196;-88
2022/08/26 08:57:42;;;;;;;4.80;2.53;;;21.30;86.00;;;;;;5015672;28;20179;-89
2022/08/26 09:00:13;;;;;;;3.40;3.08;;;21.20;85.20;;;;;;5014331;28;20184;-89
2022/08/26 09:02:45;;;;;;;5.25;3.00;;;21.20;84.50;;;;;;5017201;28;20176;-89
2022/08/26 09:05:30;;;;;;;4.57;3.40;;;21.20;84.50;;;;;;5017114;28;20200;-89
2022/08/26 09:08:05;;;;;;;6.55;3.45;;;21.20;84.60;;;;;;5015672;28;20191;-89
2022/08/26 09:10:35;;;;;;;4.40;3.25;;;21.20;84.30;;;;;;5015548;28;20180;-88
2022/08/26 09:13:07;;;;;;;3.85;3.30;;;21.20;84.00;;;;;;5033225;28;20201;-89
2022/08/26 09:15:38;;;;;;;4.40;3.30;;;21.20;84.30;;;;;;5015537;28;20165;-89
2022/08/26 09:18:30;;;;;;;6.82;3.90;;;21.20;84.30;;;;;;5014945;28;20165;-88
2022/08/26 09:21:11;;;;;;;7.05;3.95;;;21.20;84.60;;;;;;5014726;28;20327;-88
2022/08/26 09:23:42;;;;;;;5.63;3.97;;;21.20;84.60;;;;;;5016110;28;20700;-89
2022/08/26 09:26:18;;;;;;;6.43;3.80;;;21.10;85.30;;;;;;5030806;28;20187;-90
2022/08/26 09:28:54;;;;;;;5.68;4.15;;;21.00;85.50;;;;;;5024522;28;20188;-90
2022/08/26 09:31:24;;;;;;;7.50;4.50;;;20.90;85.40;;;;;;5018489;28;20171;-91
2022/08/26 09:34:11;;;;;;;4.43;3.70;;;20.90;85.70;;;;;;5020181;28;20188;-91
2022/08/26 09:36:40;;;;;;;6.57;4.13;;;20.90;85.70;;;;;;5016604;28;20191;-91
2022/08/26 09:39:33;;;;;;;6.15;3.95;;;20.90;85.90;;;;;;5016319;28;20176;-91
2022/08/26 09:42:17;;;;;;;9.20;4.88;;;20.90;86.40;;;;;;5023644;28;20210;-90
2022/08/26 09:45:02;;;;;;;10.52;5.25;;;20.90;86.40;;;;;;5025662;28;20193;-92
2022/08/26 09:47:35;;;;;;;7.50;4.88;;;21.00;86.60;;;;;;5019598;28;20172;-90
2022/08/26 09:50:08;;;;;;;11.43;5.05;;;21.00;86.40;;;;;;5018514;28;20181;-90
2022/08/26 09:52:34;;;;;;;6.65;5.38;;;21.00;86.40;;;;;;5019997;28;20232;-89
2022/08/26 09:55:13;;;;;;;7.32;5.38;;;21.10;86.50;;;;;;5020388;28;20180;-88
2022/08/26 09:57:52;;;;;;;12.55;5.72;;;21.00;86.50;;;;;;5023085;28;20172;-89
2022/08/26 10:00:33;;;;;;;10.32;5.78;;;21.00;86.70;;;;;;5022069;28;20647;-89
2022/08/26 10:03:01;;;;;;;11.43;6.65;;;21.00;87.00;;;;;;5023928;28;20204;-90
2022/08/26 10:05:41;;;;;;;14.05;6.63;;;21.10;87.20;;;;;;5024929;28;20172;-89
2022/08/26 10:08:15;;;;;;;15.73;7.80;;;21.10;87.30;;;;;;5024571;28;20184;-90
2022/08/26 10:10:41;;;;;;;18.17;7.55;;;21.20;87.50;;;;;;5018647;28;20184;-89
2022/08/26 10:13:37;;;;;;;15.32;8.38;;;21.30;87.80;;;;;;5018086;28;20215;-89
2022/08/26 10:16:13;;;;;;;17.90;9.02;;;21.30;87.90;;;;;;5017742;28;20177;-88
2022/08/26 10:18:49;;;;;;;24.45;9.98;;;21.40;88.60;;;;;;5017926;28;20177;-89
2022/08/26 10:21:24;;;;;;;25.13;10.00;;;21.40;88.90;;;;;;5018673;28;20202;-88
2022/08/26 10:23:54;;;;;;;22.42;9.38;;;21.30;88.80;;;;;;5018832;28;20200;-89
2022/08/26 10:26:36;;;;;;;23.48;10.13;;;21.40;88.90;;;;;;5018667;28;20559;-89
2022/08/26 10:29:07;;;;;;;24.20;10.02;;;21.40;88.70;;;;;;5019581;28;20322;-90
2022/08/26 10:31:33;;;;;;;15.32;9.60;;;21.50;88.70;;;;;;5018039;28;20200;-88
2022/08/26 10:33:59;;;;;;;24.60;9.77;;;21.50;88.50;;;;;;5017757;28;20199;-88
2022/08/26 10:39:27;;;;;;;21.27;9.38;;;21.60;88.70;;;;;;5035980;28;20262;-89
2022/08/26 10:41:58;;;;;;;20.90;9.02;;;21.60;88.50;;;;;;5018598;28;20175;-89
2022/08/26 10:44:25;;;;;;;23.25;9.38;;;21.60;88.60;;;;;;5018272;28;20224;-89
2022/08/26 10:46:56;;;;;;;20.23;9.93;;;21.60;88.80;;;;;;5018221;28;20181;-89
2022/08/26 10:49:22;;;;;;;16.27;10.13;;;21.70;89.00;;;;;;5018649;28;20180;-89
2022/08/26 10:52:10;;;;;;;24.10;10.75;;;21.70;88.90;;;;;;5017345;28;20208;-88
2022/08/26 10:54:53;;;;;;;21.85;9.02;;;21.70;89.30;;;;;;5018089;28;20197;-88
2022/08/26 10:57:42;;;;;;;17.30;8.80;;;21.80;89.40;;;;;;5017212;28;20545;-88
2022/08/26 11:03:40;;;;;;;23.85;9.88;;;21.80;89.40;;;;;;5035087;28;20211;-88
2022/08/26 11:06:17;;;;;;;23.13;11.00;;;21.90;89.60;;;;;;5035255;28;20189;-88
2022/08/26 11:09:05;;;;;;;25.48;9.95;;;21.90;89.60;;;;;;5016794;28;20555;-88
2022/08/26 11:11:39;;;;;;;24.40;10.00;;;21.90;89.20;;;;;;5017054;28;20634;-87
2022/08/26 11:14:10;;;;;;;21.98;9.10;;;22.00;89.20;;;;;;5016700;28;20666;-87
2022/08/26 11:16:40;;;;;;;24.83;10.25;;;22.00;89.20;;;;;;5034348;28;20187;-89
2022/08/26 11:19:08;;;;;;;27.95;10.15;;;22.10;89.20;;;;;;5016538;28;20246;-87
2022/08/26 11:22:00;;;;;;;17.48;10.43;;;22.10;88.70;;;;;;5017076;28;20177;-87
2022/08/26 11:24:58;;;;;;;16.00;10.05;;;22.20;88.80;;;;;;5016545;28;20193;-87
2022/08/26 11:27:35;;;;;;;18.02;9.77;;;22.20;88.30;;;;;;5011705;28;20196;-87
2022/08/26 11:30:16;;;;;;;21.20;10.25;;;22.40;88.20;;;;;;5034912;28;20160;-87
2022/08/26 11:32:42;;;;;;;20.48;11.05;;;22.50;88.20;;;;;;5016136;28;20662;-87
2022/08/26 11:35:11;;;;;;;24.70;10.25;;;22.70;88.00;;;;;;5016351;28;20234;-87
2022/08/26 11:37:46;;;;;;;31.20;10.10;;;22.70;87.30;;;;;;5016324;28;20263;-89
2022/08/26 11:40:16;;;;;;;19.27;10.77;;;22.80;86.90;;;;;;5016579;28;20214;-89
2022/08/26 11:42:48;;;;;;;23.80;11.02;;;23.00;86.70;;;;;;5016597;28;20169;-89
2022/08/26 11:45:30;;;;;;;22.42;11.32;;;23.20;86.60;;;;;;5017005;28;20268;-87
2022/08/26 11:47:55;;;;;;;22.92;11.63;;;23.30;86.40;;;;;;5016066;28;20164;-86
2022/08/26 11:50:27;;;;;;;25.05;11.18;;;23.40;86.10;;;;;;5015957;28;20172;-86
2022/08/26 11:53:03;;;;;;;25.02;12.10;;;23.60;85.30;;;;;;5015800;28;20200;-86
2022/08/26 11:55:30;;;;;;;23.75;11.93;;;23.80;85.30;;;;;;5016110;28;20256;-86
2022/08/26 11:57:59;;;;;;;25.73;10.65;;;23.90;83.40;;;;;;5016003;28;20595;-86
2022/08/26 12:00:47;;;;;;;20.50;10.57;;;24.00;83.80;;;;;;5015871;28;20551;-87
2022/08/26 12:03:21;;;;;;;28.48;10.80;;;24.30;83.90;;;;;;5032891;28;20565;-87
2022/08/26 12:05:50;;;;;;;23.85;10.98;;;24.40;82.70;;;;;;5015849;28;20176;-87
2022/08/26 12:08:20;;;;;;;27.80;11.10;;;24.70;82.20;;;;;;5033375;28;20176;-86
2022/08/26 12:10:49;;;;;;;28.10;11.05;;;24.80;81.60;;;;;;5015751;28;20223;-86
2022/08/26 12:13:24;;;;;;;23.55;10.77;;;24.90;79.70;;;;;;5015524;28;20208;-87
2022/08/26 12:15:56;;;;;;;23.85;9.88;;;25.10;79.50;;;;;;5015581;28;20177;-89
2022/08/26 12:18:31;;;;;;;26.70;9.13;;;25.40;80.20;;;;;;5015677;28;20633;-88
2022/08/26 12:21:14;;;;;;;34.65;9.95;;;25.60;79.90;;;;;;5015662;28;20207;-88
2022/08/26 12:23:46;;;;;;;27.55;9.82;;;25.70;77.70;;;;;;5015525;28;20201;-88
2022/08/26 12:26:29;;;;;;;16.45;8.95;;;25.80;76.70;;;;;;5033524;28;20639;-88
2022/08/26 12:29:19;;;;;;;32.83;10.07;;;25.90;77.60;;;;;;5015659;28;20673;-88
2022/08/26 12:31:45;;;;;;;24.02;10.13;;;25.80;77.40;;;;;;5011146;28;20254;-90
2022/08/26 12:34:15;;;;;;;27.50;9.88;;;25.90;77.10;;;;;;5015472;28;20290;-89
2022/08/26 12:36:55;;;;;;;20.17;9.10;;;25.70;77.00;;;;;;5016044;28;20177;-88
2022/08/26 12:39:29;;;;;;;19.17;9.10;;;25.70;77.00;;;;;;5033255;28;20551;-89
2022/08/26 12:41:57;;;;;;;23.75;10.95;;;26.00;76.50;;;;;;5015972;28;20263;-89
2022/08/26 12:44:36;;;;;;;20.58;9.10;;;26.00;74.80;;;;;;5015713;28;20201;-89
2022/08/26 12:47:21;;;;;;;19.80;7.85;;;26.00;76.00;;;;;;5015454;28;20173;-89
2022/08/26 12:49:47;;;;;;;13.73;6.93;;;26.20;74.60;;;;;;5015711;28;20173;-88
2022/08/26 12:52:29;;;;;;;26.10;8.10;;;26.20;72.90;;;;;;5019795;28;20200;-89
2022/08/26 12:55:07;;;;;;;17.58;7.75;;;26.20;74.00;;;;;;5023343;28;20188;-89
2022/08/26 12:57:35;;;;;;;22.15;7.78;;;26.20;72.30;;;;;;5025436;28;20251;-89
2022/08/26 13:00:33;;;;;;;16.17;7.28;;;26.40;73.80;;;;;;5020766;28;20240;-89